• Join FlightAware (Why Join?)
  • Login
  • US Flag 
08:11AM EDT


 

Airport Tracker/Info


-or-


 

Live Flight TrackerFlight Track Log ✈ N2317S ✈ 23-Jun-2013 ✈ KBTV - KBTV

Flight Track Log - Related Links

Times and Time Zones

All times are in EDT time to prevent confusion due to time zone crossing. See the N2317S flight status page for this flight to view local times or setup timezone preferences in your user account.

Time Position Orientation Groundspeed Altitude Reporting Facility
EDT Latitude Longitude Course Direction KTS MPH feet Rate Location/Type
09:05AM 44.4719 -73.1533 304° West  Level Estimated
09:06AM 44.4754 -73.1608 304° West  Level FlightAware Approximate
09:07AM 44.4790 -73.1683 304° West  Level FlightAware Approximate
09:08AM 44.4825 -73.1758 304° West  Level FlightAware Approximate
09:09AM 44.4861 -73.1833 304° West  Level FlightAware Approximate
09:10AM 44.4896 -73.1908 304° West  Level FlightAware Approximate
09:11AM 44.4932 -73.1983 304° West  Level FlightAware Approximate
09:12AM 44.4967 -73.2058 304° West  Level FlightAware Approximate
09:13AM 44.5003 -73.2133 304° West  Level FlightAware Approximate
09:14AM 44.5038 -73.2208 304° West  Level FlightAware Approximate
09:15AM 44.5074 -73.2283 304° West  Level FlightAware Approximate
09:16AM 44.5109 -73.2358 304° West  Level FlightAware Approximate
09:17AM 44.5145 -73.2434 304° West  Level FlightAware Approximate
09:18AM 44.5109 -73.2358 312° West  Level Estimated
09:19AM 44.5151 -73.2427 310° West  Level FlightAware Approximate
09:20AM 44.5192 -73.2496 310° West  Level FlightAware Approximate
09:21AM 44.5234 -73.2565 310° West  Level FlightAware Approximate
09:22AM 44.5275 -73.2633 310° West  Level FlightAware Approximate
09:23AM 44.5317 -73.2702 310° West  Level FlightAware Approximate
09:24AM 44.5359 -73.2771 310° West  Level FlightAware Approximate
09:25AM 44.5400 -73.2840 310° West  Level FlightAware Approximate
09:26AM 44.5442 -73.2908 310° West  Level FlightAware Approximate